Time;durP1;ratioP1;P1;durP2;ratioP2;P2;SDS_P1;SDS_P2;PMS_P1;PMS_P2;Temp;Humidity;BMP_temperature;BMP_pressure;BME280_temperature;BME280_humidity;BME280_pressure;Samples;Min_cycle;Max_cycle;Signal;HPM_P1;HPM_P2
2021/03/06 00:01:48;;;;;;;12.32;10.00;;;4.40;99.90;;;;;;5014407;28;20461;-90
2021/03/06 00:04:17;;;;;;;12.80;10.02;;;4.40;99.90;;;;;;4998756;28;20045;-91
2021/03/06 00:06:48;;;;;;;11.65;10.45;;;4.40;99.90;;;;;;5002180;28;20041;-90
2021/03/06 00:09:17;;;;;;;13.52;10.90;;;4.40;99.90;;;;;;4997524;28;20135;-90
2021/03/06 00:11:48;;;;;;;13.80;9.90;;;4.40;99.90;;;;;;5011697;28;20034;-90
2021/03/06 00:14:18;;;;;;;12.93;9.80;;;4.40;99.90;;;;;;4999854;28;20064;-90
2021/03/06 00:16:49;;;;;;;12.07;9.48;;;4.40;99.90;;;;;;5013749;28;20365;-90
2021/03/06 00:19:19;;;;;;;11.10;9.45;;;4.50;99.90;;;;;;5009560;28;20116;-90
2021/03/06 00:21:47;;;;;;;;;;;4.40;99.90;;;;;;5013129;28;20099;-90
2021/03/06 00:24:17;;;;;;;13.85;9.32;;;4.40;99.90;;;;;;5009955;28;19996;-90
2021/03/06 00:26:48;;;;;;;12.13;9.60;;;4.40;99.90;;;;;;5013019;28;20140;-90
2021/03/06 00:29:20;;;;;;;13.27;10.10;;;4.40;99.90;;;;;;5001853;28;20052;-90
2021/03/06 00:31:52;;;;;;;14.77;10.82;;;4.40;99.90;;;;;;5018351;28;20042;-90
2021/03/06 00:34:24;;;;;;;12.30;10.10;;;4.40;99.90;;;;;;4998994;28;20049;-91
2021/03/06 00:36:54;;;;;;;11.10;9.15;;;4.40;99.90;;;;;;5004658;28;20041;-91
2021/03/06 00:39:24;;;;;;;11.63;9.40;;;4.40;99.90;;;;;;4993158;28;20134;-91
2021/03/06 00:41:56;;;;;;;11.20;9.68;;;4.40;99.90;;;;;;5005663;28;20493;-91
2021/03/06 00:44:27;;;;;;;12.13;9.45;;;4.40;99.90;;;;;;5017549;28;20041;-90
2021/03/06 00:46:59;;;;;;;11.07;9.57;;;4.40;99.90;;;;;;5023331;28;20045;-90
2021/03/06 00:49:30;;;;;;;12.50;9.60;;;4.50;99.90;;;;;;5021273;28;20108;-90
2021/03/06 00:52:01;;;;;;;12.00;9.30;;;4.50;99.90;;;;;;5005570;28;20077;-90
2021/03/06 00:54:31;;;;;;;12.40;9.80;;;4.50;99.90;;;;;;4998459;28;20049;-90
2021/03/06 00:57:02;;;;;;;15.13;10.07;;;4.50;99.90;;;;;;5012945;28;20073;-90
2021/03/06 00:59:31;;;;;;;14.25;9.88;;;4.50;99.90;;;;;;5008331;28;20501;-90
2021/03/06 01:02:02;;;;;;;13.48;10.38;;;4.50;99.90;;;;;;5021053;28;20107;-90
2021/03/06 01:04:31;;;;;;;11.15;9.95;;;4.50;99.90;;;;;;5002100;28;20501;-90
2021/03/06 01:07:00;;;;;;;12.00;9.55;;;4.50;99.90;;;;;;5005304;28;20041;-90
2021/03/06 01:09:29;;;;;;;;;;;4.50;99.90;;;;;;4999666;28;20088;-89
2021/03/06 01:11:59;;;;;;;12.98;9.45;;;4.50;99.90;;;;;;5012288;28;19921;-90
2021/03/06 01:14:29;;;;;;;11.85;9.27;;;4.50;99.90;;;;;;4997810;28;20050;-90
2021/03/06 01:17:00;;;;;;;11.77;10.13;;;4.50;99.90;;;;;;5009395;28;20042;-91
2021/03/06 01:19:31;;;;;;;11.55;9.32;;;4.50;99.90;;;;;;5007781;28;20041;-90
2021/03/06 01:22:00;;;;;;;;;;;4.50;99.90;;;;;;5010116;28;20045;-90
2021/03/06 01:24:36;;;;;;;12.27;9.18;;;4.50;99.90;;;;;;5000975;28;19975;-90
2021/03/06 01:27:07;;;;;;;11.23;9.57;;;4.50;99.90;;;;;;5011129;28;20099;-91
2021/03/06 01:29:36;;;;;;;11.35;9.90;;;4.50;99.90;;;;;;4990791;28;20095;-90
2021/03/06 01:32:07;;;;;;;12.23;10.52;;;4.50;99.90;;;;;;5008401;28;20044;-91
2021/03/06 01:34:38;;;;;;;13.05;10.43;;;4.50;99.90;;;;;;5007480;28;20534;-90
2021/03/06 01:37:08;;;;;;;12.70;10.02;;;4.50;99.90;;;;;;5005097;28;20046;-90
2021/03/06 01:39:38;;;;;;;12.85;9.90;;;4.50;99.90;;;;;;5011434;28;20039;-90
2021/03/06 01:42:09;;;;;;;13.48;10.10;;;4.60;99.90;;;;;;5005122;28;20052;-90
2021/03/06 01:44:43;;;;;;;12.85;9.30;;;4.60;99.90;;;;;;5006773;28;20045;-90
2021/03/06 01:47:14;;;;;;;14.10;10.30;;;4.60;99.90;;;;;;5004117;28;20591;-90
2021/03/06 01:49:45;;;;;;;11.00;9.68;;;4.60;99.90;;;;;;5001546;28;20057;-90
2021/03/06 01:52:18;;;;;;;11.80;9.25;;;4.50;99.90;;;;;;5008444;28;20045;-91
2021/03/06 01:54:57;;;;;;;12.57;9.27;;;4.50;99.90;;;;;;5007627;28;20128;-90
2021/03/06 01:57:27;;;;;;;12.20;9.40;;;4.50;99.90;;;;;;4998201;28;20552;-90
2021/03/06 01:59:57;;;;;;;13.07;9.13;;;4.60;99.90;;;;;;5006246;28;20139;-90
2021/03/06 02:02:27;;;;;;;11.93;9.63;;;4.60;99.90;;;;;;5002722;28;20042;-91
2021/03/06 02:04:59;;;;;;;10.70;9.25;;;4.50;99.90;;;;;;5005724;28;20414;-90
2021/03/06 02:07:29;;;;;;;11.13;9.85;;;4.50;99.90;;;;;;5005211;28;20050;-90
2021/03/06 02:10:03;;;;;;;12.90;10.45;;;4.50;99.90;;;;;;5007432;28;20042;-90
2021/03/06 02:12:39;;;;;;;11.20;9.52;;;4.50;99.90;;;;;;5003392;28;20057;-90
2021/03/06 02:15:24;;;;;;;10.85;9.25;;;4.50;99.90;;;;;;5007446;28;20041;-90
2021/03/06 02:17:57;;;;;;;13.05;9.35;;;4.40;99.90;;;;;;5012288;28;20042;-90
2021/03/06 02:20:43;;;;;;;11.15;8.90;;;4.40;99.90;;;;;;5011453;28;20052;-90
2021/03/06 02:23:31;;;;;;;13.20;9.50;;;4.40;99.90;;;;;;5016740;28;20138;-90
2021/03/06 02:26:27;;;;;;;11.80;9.45;;;4.30;99.90;;;;;;5006751;28;20480;-90
2021/03/06 02:29:27;;;;;;;13.55;9.15;;;4.30;99.90;;;;;;4999549;28;20037;-89
2021/03/06 02:31:57;;;;;;;10.65;9.23;;;4.20;99.90;;;;;;5003220;28;20037;-90
2021/03/06 02:34:31;;;;;;;12.13;8.77;;;4.20;99.90;;;;;;5003432;28;20060;-90
2021/03/06 02:37:05;;;;;;;11.02;9.00;;;4.10;99.90;;;;;;5002247;28;20045;-90
2021/03/06 02:39:43;;;;;;;10.73;9.60;;;4.00;99.90;;;;;;4998345;28;20425;-90
2021/03/06 02:42:16;;;;;;;13.77;9.27;;;4.00;99.90;;;;;;4985255;28;20066;-90
2021/03/06 02:44:46;;;;;;;13.18;8.93;;;3.90;99.90;;;;;;4987198;28;20487;-90
2021/03/06 02:47:17;;;;;;;11.85;8.43;;;3.80;99.90;;;;;;4983656;28;20073;-90
2021/03/06 02:49:56;;;;;;;13.32;8.90;;;3.80;99.90;;;;;;4985393;28;20361;-90
2021/03/06 02:52:28;;;;;;;11.85;9.23;;;3.80;99.90;;;;;;4985229;28;20128;-90
2021/03/06 02:54:59;;;;;;;14.27;8.88;;;3.70;99.90;;;;;;4983764;28;20050;-90
2021/03/06 02:57:42;;;;;;;13.80;9.48;;;3.70;99.90;;;;;;4986175;28;20305;-90
2021/03/06 03:00:14;;;;;;;11.00;8.55;;;3.60;99.90;;;;;;4979278;28;20089;-90
2021/03/06 03:03:39;;;;;;;10.93;8.85;;;3.50;99.90;;;;;;4984540;28;20050;-91
2021/03/06 03:06:38;;;;;;;11.13;8.18;;;3.50;99.90;;;;;;4878497;29;20055;-90
2021/03/06 03:09:14;;;;;;;10.82;8.27;;;3.50;99.90;;;;;;4879836;29;20117;-90
2021/03/06 03:12:18;;;;;;;10.13;8.43;;;3.40;99.90;;;;;;4879091;29;20098;-90
2021/03/06 03:14:51;;;;;;;11.77;8.75;;;3.30;99.90;;;;;;4899018;29;20064;-91
2021/03/06 03:17:33;;;;;;;11.32;8.10;;;3.30;99.90;;;;;;4888781;29;20044;-90
2021/03/06 03:20:07;;;;;;;10.18;8.38;;;3.20;99.90;;;;;;4889523;29;20104;-90
2021/03/06 03:22:42;;;;;;;11.00;8.80;;;3.20;99.90;;;;;;4903702;29;20040;-89
2021/03/06 03:25:12;;;;;;;11.35;7.65;;;3.20;99.90;;;;;;4888362;29;20066;-89
2021/03/06 03:27:45;;;;;;;11.48;8.60;;;3.10;99.90;;;;;;4885800;29;20052;-90
2021/03/06 03:30:17;;;;;;;10.65;7.97;;;3.10;99.90;;;;;;4885771;29;20067;-91
2021/03/06 03:32:50;;;;;;;13.52;9.18;;;3.10;99.90;;;;;;4908640;29;20048;-90
2021/03/06 03:35:22;;;;;;;10.02;7.85;;;3.10;99.90;;;;;;4892684;29;20051;-90
2021/03/06 03:37:55;;;;;;;11.30;8.38;;;3.00;99.90;;;;;;5004134;28;20092;-90
2021/03/06 03:40:25;;;;;;;11.95;9.02;;;3.00;99.90;;;;;;4984026;28;20046;-90
2021/03/06 03:42:57;;;;;;;10.20;8.02;;;3.00;99.90;;;;;;4996966;28;20576;-90
2021/03/06 03:45:27;;;;;;;11.85;9.02;;;2.90;99.90;;;;;;4996256;28;20042;-90
2021/03/06 03:47:57;;;;;;;12.35;8.38;;;2.90;99.90;;;;;;5008206;28;20041;-90
2021/03/06 03:50:27;;;;;;;11.65;8.27;;;2.90;99.90;;;;;;5000740;28;20045;-90
2021/03/06 03:52:57;;;;;;;13.63;8.75;;;2.90;99.90;;;;;;5004888;28;20038;-90
2021/03/06 03:55:28;;;;;;;11.43;8.50;;;2.90;99.90;;;;;;5002302;28;20124;-90
2021/03/06 03:57:57;;;;;;;14.75;8.57;;;2.80;99.90;;;;;;5010743;28;20069;-90
2021/03/06 04:00:27;;;;;;;10.40;8.27;;;2.80;99.90;;;;;;5000246;28;20046;-90
2021/03/06 04:03:05;;;;;;;11.02;8.32;;;2.80;99.90;;;;;;5005334;28;20041;-91
2021/03/06 04:05:35;;;;;;;12.60;8.40;;;2.70;99.90;;;;;;4997814;28;20052;-90
2021/03/06 04:08:04;;;;;;;11.57;8.32;;;2.70;99.90;;;;;;4991152;28;20476;-90
2021/03/06 04:10:34;;;;;;;13.00;8.63;;;2.70;99.90;;;;;;5001935;28;20133;-90
2021/03/06 04:13:08;;;;;;;13.95;8.73;;;2.70;99.90;;;;;;4998369;28;20474;-90
2021/03/06 04:15:38;;;;;;;12.43;8.63;;;2.60;99.90;;;;;;5018460;28;20119;-90
2021/03/06 04:18:09;;;;;;;11.65;8.15;;;2.60;99.90;;;;;;4993540;28;20045;-90
2021/03/06 04:20:39;;;;;;;10.30;8.07;;;2.60;99.90;;;;;;5003898;28;20046;-90
2021/03/06 04:23:11;;;;;;;11.90;8.35;;;2.60;99.90;;;;;;5000002;28;20045;-90
2021/03/06 04:25:41;;;;;;;14.48;8.40;;;2.50;99.90;;;;;;4996000;28;20129;-90
2021/03/06 04:28:13;;;;;;;12.20;8.13;;;2.50;99.90;;;;;;5004011;28;20045;-90
2021/03/06 04:30:44;;;;;;;10.02;7.97;;;2.50;99.90;;;;;;5000953;28;20092;-90
2021/03/06 04:33:15;;;;;;;13.88;8.38;;;2.40;99.90;;;;;;5002781;28;20041;-90
2021/03/06 04:35:46;;;;;;;11.25;8.57;;;2.40;99.90;;;;;;5012893;28;20053;-91
2021/03/06 04:38:17;;;;;;;9.50;8.02;;;2.40;99.90;;;;;;5002400;28;20049;-90
2021/03/06 04:40:47;;;;;;;10.02;8.50;;;2.40;99.90;;;;;;5008567;28;20125;-90
2021/03/06 04:43:16;;;;;;;13.80;8.23;;;2.40;99.90;;;;;;5006415;28;20053;-90
2021/03/06 04:45:46;;;;;;;10.25;7.30;;;2.30;99.90;;;;;;5015636;28;20056;-89
2021/03/06 04:48:18;;;;;;;10.35;8.35;;;2.30;99.90;;;;;;5002107;28;20041;-92
2021/03/06 04:50:50;;;;;;;13.38;8.77;;;2.30;99.90;;;;;;5010336;28;20069;-91
2021/03/06 04:53:21;;;;;;;11.27;7.55;;;2.20;99.90;;;;;;4998307;28;20054;-90
2021/03/06 04:55:52;;;;;;;11.02;8.10;;;2.20;99.90;;;;;;5022906;28;20398;-90
2021/03/06 04:58:22;;;;;;;11.90;8.48;;;2.20;99.90;;;;;;5001231;28;20049;-90
2021/03/06 05:00:52;;;;;;;11.48;8.00;;;2.20;99.90;;;;;;5011023;28;20120;-91
2021/03/06 05:03:24;;;;;;;10.77;8.32;;;2.10;99.90;;;;;;5005800;28;20479;-91
2021/03/06 05:05:54;;;;;;;12.20;9.35;;;2.10;99.90;;;;;;5012196;28;20049;-90
2021/03/06 05:08:23;;;;;;;12.50;8.90;;;2.10;99.90;;;;;;4989123;28;20050;-90
2021/03/06 05:10:54;;;;;;;12.40;8.65;;;2.10;99.90;;;;;;5004110;28;20104;-91
2021/03/06 05:13:25;;;;;;;12.13;8.90;;;2.10;99.90;;;;;;5003113;28;20041;-90
2021/03/06 05:15:55;;;;;;;11.38;9.18;;;2.00;99.90;;;;;;5007018;28;20049;-89
2021/03/06 05:18:25;;;;;;;13.23;8.80;;;2.00;99.90;;;;;;5002848;28;20098;-90
2021/03/06 05:20:53;;;;;;;15.32;9.60;;;2.00;99.90;;;;;;5013029;28;20060;-90
2021/03/06 05:23:24;;;;;;;16.13;8.85;;;2.00;99.90;;;;;;5008002;28;20080;-90
2021/03/06 05:25:56;;;;;;;10.10;8.77;;;2.00;99.90;;;;;;5008256;28;20077;-90
2021/03/06 05:28:27;;;;;;;12.48;8.68;;;2.00;99.90;;;;;;4997666;28;20056;-90
2021/03/06 05:31:00;;;;;;;11.15;8.60;;;1.90;99.90;;;;;;5007581;28;20158;-90
2021/03/06 05:33:31;;;;;;;12.07;9.68;;;1.90;99.90;;;;;;5002061;28;20471;-90
2021/03/06 05:36:02;;;;;;;14.07;9.80;;;1.90;99.90;;;;;;5007113;28;20054;-90
2021/03/06 05:38:33;;;;;;;12.90;9.15;;;1.90;99.90;;;;;;4998970;28;20049;-90
2021/03/06 05:41:02;;;;;;;16.60;9.30;;;1.80;99.90;;;;;;5005728;28;20060;-90
2021/03/06 05:43:33;;;;;;;11.63;8.63;;;1.80;99.90;;;;;;4999766;28;20112;-90
2021/03/06 05:46:04;;;;;;;12.15;9.02;;;1.80;99.90;;;;;;5003558;28;20057;-90
2021/03/06 05:48:35;;;;;;;10.07;8.27;;;1.70;99.90;;;;;;5007119;28;20042;-90
2021/03/06 05:51:07;;;;;;;14.45;9.85;;;1.80;99.90;;;;;;5001833;28;20571;-90
2021/03/06 05:53:40;;;;;;;12.23;9.30;;;1.70;99.90;;;;;;5010428;28;20046;-90
2021/03/06 05:56:14;;;;;;;13.85;9.52;;;1.70;99.90;;;;;;5009230;28;20045;-90
2021/03/06 05:58:46;;;;;;;10.68;9.57;;;1.70;99.90;;;;;;5013058;28;20482;-90
2021/03/06 06:01:16;;;;;;;13.63;9.98;;;1.60;99.90;;;;;;5005625;28;20049;-90
2021/03/06 06:03:44;;;;;;;14.32;9.93;;;1.60;99.90;;;;;;5006646;28;20045;-90
2021/03/06 06:06:14;;;;;;;11.18;9.38;;;1.60;99.90;;;;;;5000417;28;20155;-90
2021/03/06 06:08:44;;;;;;;17.13;8.98;;;1.60;99.90;;;;;;5005399;28;20057;-90
2021/03/06 06:11:14;;;;;;;14.70;9.52;;;1.50;99.90;;;;;;5000657;28;20144;-90
2021/03/06 06:13:43;;;;;;;15.75;10.05;;;1.50;99.90;;;;;;5008799;28;20045;-90
2021/03/06 06:16:14;;;;;;;15.38;9.73;;;1.50;99.90;;;;;;4999023;28;20212;-90
2021/03/06 06:18:46;;;;;;;13.18;10.07;;;1.50;99.90;;;;;;5005276;28;20057;-89
2021/03/06 06:21:37;;;;;;;11.35;9.15;;;1.50;99.90;;;;;;5005609;28;20068;-90
2021/03/06 06:24:18;;;;;;;12.98;9.40;;;1.50;99.90;;;;;;5000828;28;20398;-90
2021/03/06 06:26:59;;;;;;;14.13;9.63;;;1.50;99.90;;;;;;5024716;28;20168;-90
2021/03/06 06:29:46;;;;;;;14.55;10.00;;;1.50;99.90;;;;;;4998454;28;20038;-90
2021/03/06 06:32:20;;;;;;;14.27;10.77;;;1.40;99.90;;;;;;5014210;28;20041;-91
2021/03/06 06:35:08;;;;;;;13.20;10.43;;;1.40;99.90;;;;;;4998485;28;20076;-91
2021/03/06 06:37:40;;;;;;;12.60;9.23;;;1.40;99.90;;;;;;5013757;28;20041;-90
2021/03/06 06:40:18;;;;;;;14.80;9.93;;;1.40;99.90;;;;;;5003292;28;20045;-90
2021/03/06 06:42:48;;;;;;;10.80;9.20;;;1.40;99.90;;;;;;5006937;28;20048;-90
2021/03/06 06:45:18;;;;;;;16.90;10.15;;;1.40;99.90;;;;;;5004429;28;20501;-90
2021/03/06 06:47:51;;;;;;;11.38;9.38;;;1.30;99.90;;;;;;4999632;28;20386;-90
2021/03/06 06:50:32;;;;;;;14.90;9.75;;;1.30;99.90;;;;;;5001824;28;20069;-89
2021/03/06 06:53:04;;;;;;;14.43;9.57;;;1.30;99.90;;;;;;5006043;28;20072;-90
2021/03/06 06:55:39;;;;;;;11.77;9.55;;;1.30;99.90;;;;;;5002668;28;20042;-90
2021/03/06 06:58:10;;;;;;;12.93;10.27;;;1.30;99.90;;;;;;5002054;28;20060;-90
2021/03/06 07:00:41;;;;;;;12.95;9.93;;;1.30;99.90;;;;;;5008155;28;20045;-90
2021/03/06 07:03:21;;;;;;;11.77;9.70;;;1.30;99.90;;;;;;4988867;28;20048;-89
2021/03/06 07:05:51;;;;;;;11.27;10.07;;;1.30;99.90;;;;;;5001517;28;20048;-88
2021/03/06 07:08:24;;;;;;;18.85;10.02;;;1.30;99.90;;;;;;5000933;28;20421;-90
2021/03/06 07:10:56;;;;;;;13.38;10.20;;;1.30;99.90;;;;;;5009427;28;20049;-89
2021/03/06 07:13:41;;;;;;;12.73;9.90;;;1.30;99.90;;;;;;4998611;28;20831;-90
2021/03/06 07:16:12;;;;;;;11.73;10.43;;;1.30;99.90;;;;;;5001773;28;20132;-90
2021/03/06 07:18:41;;;;;;;15.55;9.85;;;1.30;99.90;;;;;;5002597;28;20426;-89
2021/03/06 07:21:10;;;;;;;;;;;1.40;99.90;;;;;;4999660;28;20065;-89
2021/03/06 07:23:39;;;;;;;11.30;9.68;;;1.40;99.90;;;;;;4993563;28;19921;-89
2021/03/06 07:26:09;;;;;;;13.43;9.98;;;1.40;99.90;;;;;;4998393;28;20087;-89
2021/03/06 07:28:39;;;;;;;13.07;10.25;;;1.50;99.90;;;;;;5020686;28;20475;-87
2021/03/06 07:31:08;;;;;;;13.20;10.10;;;1.50;99.90;;;;;;5008117;28;20471;-89
2021/03/06 07:33:41;;;;;;;13.45;9.93;;;1.50;99.90;;;;;;5004101;28;20371;-89
2021/03/06 07:36:20;;;;;;;12.27;9.70;;;1.60;99.90;;;;;;5001919;28;20042;-90
2021/03/06 07:38:49;;;;;;;13.65;10.15;;;1.60;99.90;;;;;;5012254;28;20048;-90
2021/03/06 07:41:24;;;;;;;12.05;9.93;;;1.70;99.90;;;;;;4999950;28;20061;-90
2021/03/06 07:43:53;;;;;;;15.45;10.10;;;1.70;99.90;;;;;;5015303;28;20041;-90
2021/03/06 07:46:23;;;;;;;10.98;9.82;;;1.80;99.90;;;;;;4995572;28;20041;-90
2021/03/06 07:48:57;;;;;;;13.93;9.30;;;1.80;99.90;;;;;;5000349;28;20480;-90
2021/03/06 07:51:30;;;;;;;11.07;9.80;;;1.90;99.90;;;;;;4998476;28;20076;-90
2021/03/06 07:54:00;;;;;;;11.95;9.88;;;1.90;99.90;;;;;;5005866;28;20061;-91
2021/03/06 07:56:31;;;;;;;14.43;10.15;;;2.00;99.90;;;;;;5001292;28;20132;-90
2021/03/06 07:59:00;;;;;;;12.43;9.88;;;2.10;99.90;;;;;;5007992;28;20044;-90
2021/03/06 08:01:30;;;;;;;14.05;9.95;;;2.20;99.90;;;;;;5024350;28;20387;-90
2021/03/06 08:04:00;;;;;;;12.45;9.27;;;2.30;99.90;;;;;;5010132;28;20048;-90
2021/03/06 08:06:33;;;;;;;15.02;9.90;;;2.30;99.90;;;;;;5011632;28;20057;-90
2021/03/06 08:09:11;;;;;;;12.48;10.63;;;2.40;99.90;;;;;;5008522;28;20049;-90
2021/03/06 08:11:41;;;;;;;13.35;9.63;;;2.50;99.90;;;;;;5027466;28;20467;-90
2021/03/06 08:14:30;;;;;;;10.68;9.23;;;2.50;99.90;;;;;;5005707;28;20128;-90
2021/03/06 08:17:00;;;;;;;11.93;9.52;;;2.60;99.90;;;;;;5010146;28;20053;-90
2021/03/06 08:19:28;;;;;;;12.75;9.48;;;2.70;99.90;;;;;;5005688;28;20128;-90
2021/03/06 08:22:14;;;;;;;13.43;9.90;;;2.70;99.90;;;;;;5011208;28;20493;-90
2021/03/06 08:24:45;;;;;;;16.05;10.75;;;2.80;99.90;;;;;;5002548;28;20475;-91
2021/03/06 08:27:15;;;;;;;11.30;10.10;;;2.90;99.90;;;;;;5001515;28;20054;-91
2021/03/06 08:29:48;;;;;;;11.68;9.93;;;3.00;99.90;;;;;;5009599;28;20072;-90
2021/03/06 08:32:24;;;;;;;17.42;10.45;;;3.10;99.90;;;;;;5002643;28;20479;-91
2021/03/06 08:34:57;;;;;;;15.18;10.98;;;3.20;99.90;;;;;;5020886;28;20050;-90
2021/03/06 08:37:31;;;;;;;13.00;10.45;;;3.30;99.90;;;;;;5003513;28;20068;-90
2021/03/06 08:40:06;;;;;;;15.35;10.93;;;3.50;99.90;;;;;;5007972;28;20045;-90
2021/03/06 08:42:45;;;;;;;13.20;10.90;;;3.60;99.90;;;;;;5002337;28;20479;-91
2021/03/06 08:45:30;;;;;;;13.35;10.73;;;3.60;99.90;;;;;;5002408;28;20049;-91
2021/03/06 08:48:04;;;;;;;12.90;11.50;;;3.80;99.90;;;;;;5000959;28;20505;-91
2021/03/06 08:50:37;;;;;;;14.65;11.43;;;3.90;99.90;;;;;;5009152;28;20140;-91
2021/03/06 08:53:08;;;;;;;14.10;11.18;;;4.00;99.90;;;;;;4999171;28;20045;-91
2021/03/06 08:55:41;;;;;;;13.77;10.60;;;4.10;99.90;;;;;;5000222;28;20531;-91
2021/03/06 08:58:16;;;;;;;13.10;11.35;;;4.20;99.90;;;;;;4994573;28;20042;-91
2021/03/06 09:00:49;;;;;;;17.88;10.85;;;4.30;99.90;;;;;;5007266;28;20076;-90
2021/03/06 09:03:24;;;;;;;12.98;10.40;;;4.40;99.90;;;;;;5000337;28;20055;-91
2021/03/06 09:05:58;;;;;;;13.13;10.40;;;4.50;99.90;;;;;;5007551;28;20095;-86
2021/03/06 09:08:26;;;;;;;16.02;12.25;;;4.60;99.90;;;;;;5011021;28;20041;-87
2021/03/06 09:10:58;;;;;;;15.25;11.38;;;4.80;99.90;;;;;;5004176;28;20489;-88
2021/03/06 09:13:30;;;;;;;26.23;13.30;;;4.90;99.90;;;;;;5007216;28;20146;-86
2021/03/06 09:16:03;;;;;;;18.80;12.63;;;5.00;99.90;;;;;;5009410;28;20048;-86
2021/03/06 09:18:32;;;;;;;30.77;13.93;;;5.20;99.90;;;;;;5034227;28;20045;-86
2021/03/06 09:21:05;;;;;;;21.75;13.27;;;5.30;99.90;;;;;;5008783;28;20046;-86
2021/03/06 09:23:43;;;;;;;33.60;13.45;;;5.50;99.90;;;;;;5004934;28;20105;-85
2021/03/06 09:26:19;;;;;;;19.30;13.63;;;5.60;99.90;;;;;;5020614;28;20045;-88
2021/03/06 09:28:47;;;;;;;13.32;11.93;;;5.70;99.90;;;;;;5007374;28;20746;-88
2021/03/06 09:31:21;;;;;;;16.30;13.55;;;5.80;99.90;;;;;;5004322;28;20132;-87
2021/03/06 09:33:52;;;;;;;18.25;13.63;;;5.90;99.90;;;;;;5012824;28;20494;-88
2021/03/06 09:36:21;;;;;;;17.13;13.80;;;6.00;99.90;;;;;;5010051;28;20050;-86
2021/03/06 09:38:49;;;;;;;16.27;13.55;;;6.00;99.90;;;;;;5014715;28;20438;-87
2021/03/06 09:41:22;;;;;;;17.98;13.95;;;6.10;99.90;;;;;;5004433;28;20309;-86
2021/03/06 09:43:56;;;;;;;17.58;14.40;;;6.20;99.90;;;;;;5007155;28;20069;-86
2021/03/06 09:46:26;;;;;;;15.60;14.00;;;6.20;99.90;;;;;;4993319;28;20065;-88
2021/03/06 09:48:59;;;;;;;19.15;15.32;;;6.30;99.90;;;;;;4991703;28;20053;-87
2021/03/06 09:51:50;;;;;;;16.25;14.02;;;6.40;99.90;;;;;;4988333;28;20124;-88
2021/03/06 09:54:19;;;;;;;19.80;15.38;;;6.60;99.90;;;;;;4992390;28;20048;-88
2021/03/06 09:56:53;;;;;;;20.85;15.15;;;6.60;99.90;;;;;;4991080;28;20377;-87
2021/03/06 09:59:21;;;;;;;18.40;14.68;;;6.70;99.90;;;;;;5008913;28;20462;-88
2021/03/06 10:01:48;;;;;;;18.02;16.08;;;6.70;99.90;;;;;;4993867;28;20046;-88
2021/03/06 10:04:18;;;;;;;20.98;16.10;;;6.80;99.90;;;;;;4992601;28;20053;-88
2021/03/06 10:06:47;;;;;;;19.38;16.70;;;6.90;99.90;;;;;;4991507;28;20460;-88
2021/03/06 10:09:15;;;;;;;19.98;16.60;;;7.00;99.90;;;;;;4989431;28;20046;-89
2021/03/06 10:11:50;;;;;;;17.80;15.45;;;7.00;99.90;;;;;;4993723;28;20068;-88
2021/03/06 10:14:20;;;;;;;18.25;15.20;;;7.10;99.90;;;;;;4991370;28;20050;-88
2021/03/06 10:16:58;;;;;;;19.08;15.90;;;7.10;99.90;;;;;;4995580;28;20049;-87
2021/03/06 10:19:27;;;;;;;20.92;15.88;;;7.20;99.90;;;;;;4989545;28;20045;-86
2021/03/06 10:21:56;;;;;;;19.42;15.85;;;7.20;99.90;;;;;;4991531;28;20050;-88
2021/03/06 10:24:24;;;;;;;17.60;15.80;;;7.20;99.90;;;;;;4988621;28;22301;-88
2021/03/06 10:26:55;;;;;;;20.05;16.90;;;7.20;99.90;;;;;;4984560;28;20503;-88
2021/03/06 10:29:24;;;;;;;20.67;15.75;;;7.30;99.90;;;;;;4983807;28;20034;-88
2021/03/06 10:32:02;;;;;;;21.55;16.15;;;7.40;99.90;;;;;;4981543;28;20050;-89
2021/03/06 10:34:49;;;;;;;18.88;15.93;;;7.40;99.90;;;;;;4991955;28;20046;-87
2021/03/06 10:37:19;;;;;;;21.85;16.85;;;7.40;99.90;;;;;;4989512;28;20042;-87
2021/03/06 10:40:07;;;;;;;18.10;15.00;;;7.50;99.90;;;;;;4983190;28;20046;-86
2021/03/06 10:42:46;;;;;;;18.02;15.43;;;7.60;99.90;;;;;;4987593;28;20054;-87
2021/03/06 10:45:29;;;;;;;;;;;7.60;99.90;;;;;;4997800;28;20054;-86
2021/03/06 10:47:59;;;;;;;18.10;15.57;;;7.60;99.70;;;;;;4997628;28;19922;-85
2021/03/06 10:50:30;;;;;;;19.10;16.55;;;7.70;99.90;;;;;;4989241;28;20492;-85
2021/03/06 10:53:16;;;;;;;16.80;14.90;;;7.80;99.90;;;;;;4988999;28;20046;-85
2021/03/06 10:55:45;;;;;;;18.25;15.80;;;7.90;99.90;;;;;;4987622;28;20057;-85
2021/03/06 10:58:11;;;;;;;18.77;16.77;;;7.90;99.90;;;;;;4985751;28;20045;-86
2021/03/06 11:00:41;;;;;;;20.55;16.73;;;8.00;99.90;;;;;;4988775;28;20352;-85
2021/03/06 11:03:09;;;;;;;20.38;16.90;;;7.90;99.60;;;;;;4990575;28;20046;-87
2021/03/06 11:05:37;;;;;;;21.35;16.15;;;7.90;99.90;;;;;;4989250;28;20078;-85
2021/03/06 11:08:30;;;;;;;20.25;16.17;;;7.90;99.90;;;;;;4991992;28;20073;-85
2021/03/06 11:10:57;;;;;;;18.23;16.02;;;8.00;99.40;;;;;;4989523;28;20046;-86
2021/03/06 11:13:43;;;;;;;18.90;16.60;;;8.00;99.90;;;;;;4990397;28;20128;-84
2021/03/06 11:16:12;;;;;;;17.27;15.43;;;8.10;99.90;;;;;;4984784;28;20061;-84
2021/03/06 11:18:40;;;;;;;17.95;14.60;;;8.20;99.80;;;;;;4985375;28;20041;-84
2021/03/06 11:21:12;;;;;;;18.15;14.68;;;8.30;99.80;;;;;;5007112;28;20044;-85
2021/03/06 11:23:38;;;;;;;17.10;14.15;;;8.40;99.20;;;;;;4993287;28;20060;-86
2021/03/06 11:26:05;;;;;;;18.48;15.45;;;8.50;99.10;;;;;;4992154;28;20488;-84
2021/03/06 11:28:32;;;;;;;20.02;15.45;;;8.50;98.80;;;;;;4992095;28;20046;-85
2021/03/06 11:31:01;;;;;;;17.38;15.48;;;8.60;98.90;;;;;;4993910;28;20057;-87
2021/03/06 11:33:30;;;;;;;;;;;8.60;98.60;;;;;;4992368;28;20045;-85
2021/03/06 11:35:57;;;;;;;15.70;14.00;;;8.50;97.80;;;;;;4992483;28;20371;-86
2021/03/06 11:38:24;;;;;;;16.52;14.65;;;8.50;98.10;;;;;;4992603;28;20061;-86
2021/03/06 11:40:54;;;;;;;16.40;14.55;;;8.50;98.00;;;;;;4983003;28;20104;-87
2021/03/06 11:43:21;;;;;;;18.13;14.30;;;8.60;98.40;;;;;;5006661;28;20053;-86
2021/03/06 11:45:48;;;;;;;17.90;14.80;;;8.60;98.40;;;;;;5025553;28;20049;-87
2021/03/06 11:48:14;;;;;;;17.17;14.70;;;8.70;98.30;;;;;;5024230;28;20133;-88
2021/03/06 11:50:45;;;;;;;17.08;14.60;;;8.70;98.20;;;;;;5003819;28;20057;-86
2021/03/06 11:53:12;;;;;;;17.80;14.65;;;8.80;97.70;;;;;;5025068;28;20042;-87
2021/03/06 11:55:39;;;;;;;17.85;14.98;;;8.90;97.80;;;;;;5011657;28;20041;-86
2021/03/06 11:58:06;;;;;;;16.23;14.40;;;8.90;97.90;;;;;;5008405;28;20041;-87
2021/03/06 12:00:34;;;;;;;16.58;14.73;;;9.00;97.80;;;;;;5007275;28;20048;-87
2021/03/06 12:03:03;;;;;;;15.68;14.07;;;9.00;97.10;;;;;;5008661;28;20053;-87
2021/03/06 12:05:30;;;;;;;14.90;13.30;;;9.00;96.80;;;;;;5010739;28;20068;-86
2021/03/06 12:07:57;;;;;;;16.77;14.32;;;8.90;96.80;;;;;;5003229;28;20112;-86
2021/03/06 12:10:27;;;;;;;16.75;13.95;;;8.90;96.60;;;;;;5007906;28;20046;-86
2021/03/06 12:12:55;;;;;;;15.90;14.20;;;8.90;96.90;;;;;;5028309;28;20049;-87
2021/03/06 12:15:23;;;;;;;17.55;13.63;;;8.90;96.50;;;;;;5012779;28;20420;-86
2021/03/06 12:17:49;;;;;;;16.00;14.30;;;8.90;96.40;;;;;;5014851;28;20041;-86
2021/03/06 12:20:17;;;;;;;17.23;14.00;;;8.90;96.20;;;;;;5003186;28;20050;-86
2021/03/06 12:22:47;;;;;;;15.88;14.25;;;8.90;96.40;;;;;;5030675;28;20099;-87
2021/03/06 12:25:15;;;;;;;17.58;14.02;;;8.90;96.20;;;;;;5008001;28;20491;-86
2021/03/06 12:27:42;;;;;;;15.85;13.70;;;8.90;96.30;;;;;;5012297;28;20047;-87
2021/03/06 12:30:11;;;;;;;16.70;13.85;;;8.80;96.20;;;;;;5002654;28;20041;-87
2021/03/06 12:32:38;;;;;;;16.60;14.35;;;8.80;96.30;;;;;;5011194;28;20491;-87
2021/03/06 12:35:07;;;;;;;16.63;14.00;;;8.90;96.80;;;;;;5012055;28;20391;-86
2021/03/06 12:37:34;;;;;;;16.90;15.10;;;8.90;96.70;;;;;;5014319;28;20057;-87
2021/03/06 12:40:03;;;;;;;17.17;14.18;;;9.00;96.90;;;;;;5013479;28;20038;-85
2021/03/06 12:42:29;;;;;;;17.10;14.05;;;9.10;96.30;;;;;;5010735;28;20045;-87
2021/03/06 12:44:55;;;;;;;15.43;13.82;;;9.10;96.20;;;;;;5006584;28;20045;-86
2021/03/06 12:47:22;;;;;;;16.30;13.45;;;9.10;96.20;;;;;;5028880;28;20054;-86
2021/03/06 12:49:49;;;;;;;18.20;14.88;;;9.20;96.00;;;;;;5012278;28;20049;-87
2021/03/06 12:52:15;;;;;;;16.38;14.68;;;9.20;96.00;;;;;;5006891;28;20508;-86
2021/03/06 12:54:42;;;;;;;16.00;14.30;;;9.20;95.80;;;;;;5008899;28;20053;-86
2021/03/06 12:57:08;;;;;;;15.85;14.18;;;9.30;95.80;;;;;;5009401;28;20046;-86
2021/03/06 12:59:35;;;;;;;16.48;14.10;;;9.30;96.10;;;;;;4999292;28;20057;-87
2021/03/06 13:02:02;;;;;;;15.52;13.93;;;9.30;95.90;;;;;;5013956;28;20676;-87
2021/03/06 13:04:29;;;;;;;16.40;14.60;;;9.40;95.80;;;;;;5010184;28;20388;-87
2021/03/06 13:06:55;;;;;;;17.05;14.82;;;9.40;95.80;;;;;;5007948;28;20395;-87
2021/03/06 13:09:22;;;;;;;16.50;14.80;;;9.40;95.80;;;;;;5014650;28;20132;-87